sensor_id;sensor_type;location;lat;lon;timestamp;temperature;humidity
19044;DHT22;9654;52.302;8.120;2023-02-22T00:00:22;7.90;99.90
19044;DHT22;9654;52.302;8.120;2023-02-22T00:02:55;7.80;99.90
19044;DHT22;9654;52.302;8.120;2023-02-22T00:05:25;7.80;99.90
19044;DHT22;9654;52.302;8.120;2023-02-22T00:07:52;7.80;99.90
19044;DHT22;9654;52.302;8.120;2023-02-22T00:10:22;7.80;99.90
19044;DHT22;9654;52.302;8.120;2023-02-22T00:12:50;7.80;99.90
19044;DHT22;9654;52.302;8.120;2023-02-22T00:15:18;7.80;99.90
19044;DHT22;9654;52.302;8.120;2023-02-22T00:17:46;7.80;99.90
19044;DHT22;9654;52.302;8.120;2023-02-22T00:20:15;7.80;99.90
19044;DHT22;9654;52.302;8.120;2023-02-22T00:22:45;7.70;99.90
19044;DHT22;9654;52.302;8.120;2023-02-22T00:25:13;7.80;99.90
19044;DHT22;9654;52.302;8.120;2023-02-22T00:27:41;7.80;99.90
19044;DHT22;9654;52.302;8.120;2023-02-22T00:30:14;7.80;99.90
19044;DHT22;9654;52.302;8.120;2023-02-22T00:32:44;7.80;99.90
19044;DHT22;9654;52.302;8.120;2023-02-22T00:35:11;7.80;99.90
19044;DHT22;9654;52.302;8.120;2023-02-22T00:37:39;7.80;99.90
19044;DHT22;9654;52.302;8.120;2023-02-22T00:40:08;7.80;99.90
19044;DHT22;9654;52.302;8.120;2023-02-22T00:42:35;7.80;99.90
19044;DHT22;9654;52.302;8.120;2023-02-22T00:45:02;7.80;99.90
19044;DHT22;9654;52.302;8.120;2023-02-22T00:47:29;7.80;99.90
19044;DHT22;9654;52.302;8.120;2023-02-22T00:49:56;7.80;99.90
19044;DHT22;9654;52.302;8.120;2023-02-22T00:52:23;7.80;99.90
19044;DHT22;9654;52.302;8.120;2023-02-22T00:54:51;7.80;99.90
19044;DHT22;9654;52.302;8.120;2023-02-22T00:57:18;7.80;99.90
19044;DHT22;9654;52.302;8.120;2023-02-22T00:59:45;7.80;99.90
19044;DHT22;9654;52.302;8.120;2023-02-22T01:02:12;7.80;99.90
19044;DHT22;9654;52.302;8.120;2023-02-22T01:04:38;7.80;99.90
19044;DHT22;9654;52.302;8.120;2023-02-22T01:07:05;7.80;99.90
19044;DHT22;9654;52.302;8.120;2023-02-22T01:09:32;7.80;99.90
19044;DHT22;9654;52.302;8.120;2023-02-22T01:12:01;7.80;99.90
19044;DHT22;9654;52.302;8.120;2023-02-22T01:14:28;7.80;99.90
19044;DHT22;9654;52.302;8.120;2023-02-22T01:16:56;7.80;99.90
19044;DHT22;9654;52.302;8.120;2023-02-22T01:19:22;7.80;99.90
19044;DHT22;9654;52.302;8.120;2023-02-22T01:21:50;7.80;99.90
19044;DHT22;9654;52.302;8.120;2023-02-22T01:24:17;7.80;99.90
19044;DHT22;9654;52.302;8.120;2023-02-22T01:26:49;7.80;99.90
19044;DHT22;9654;52.302;8.120;2023-02-22T01:29:18;7.80;99.90
19044;DHT22;9654;52.302;8.120;2023-02-22T01:31:51;7.80;99.90
19044;DHT22;9654;52.302;8.120;2023-02-22T01:34:19;7.80;99.90
19044;DHT22;9654;52.302;8.120;2023-02-22T01:36:46;7.80;99.90
19044;DHT22;9654;52.302;8.120;2023-02-22T01:39:13;7.80;99.90
19044;DHT22;9654;52.302;8.120;2023-02-22T01:41:40;7.80;99.90
19044;DHT22;9654;52.302;8.120;2023-02-22T01:44:21;7.80;99.90
19044;DHT22;9654;52.302;8.120;2023-02-22T01:46:51;7.80;99.90
19044;DHT22;9654;52.302;8.120;2023-02-22T01:49:18;7.80;99.90
19044;DHT22;9654;52.302;8.120;2023-02-22T01:51:46;7.80;99.90
19044;DHT22;9654;52.302;8.120;2023-02-22T01:54:16;7.80;99.90
19044;DHT22;9654;52.302;8.120;2023-02-22T01:56:47;7.80;99.90
19044;DHT22;9654;52.302;8.120;2023-02-22T01:59:16;7.80;99.90
19044;DHT22;9654;52.302;8.120;2023-02-22T02:01:45;7.80;99.90
19044;DHT22;9654;52.302;8.120;2023-02-22T02:04:16;7.80;99.90
19044;DHT22;9654;52.302;8.120;2023-02-22T02:06:45;7.80;99.90
19044;DHT22;9654;52.302;8.120;2023-02-22T02:09:16;7.80;99.90
19044;DHT22;9654;52.302;8.120;2023-02-22T02:11:45;7.80;99.90
19044;DHT22;9654;52.302;8.120;2023-02-22T02:14:13;7.70;99.90
19044;DHT22;9654;52.302;8.120;2023-02-22T02:16:41;7.70;99.90
19044;DHT22;9654;52.302;8.120;2023-02-22T02:19:17;7.70;99.90
19044;DHT22;9654;52.302;8.120;2023-02-22T02:22:07;7.70;99.90
19044;DHT22;9654;52.302;8.120;2023-02-22T02:24:57;7.70;99.90
19044;DHT22;9654;52.302;8.120;2023-02-22T02:27:44;7.70;99.90
19044;DHT22;9654;52.302;8.120;2023-02-22T02:33:26;7.70;99.90
19044;DHT22;9654;52.302;8.120;2023-02-22T02:36:00;7.70;99.90
19044;DHT22;9654;52.302;8.120;2023-02-22T02:38:32;7.70;99.90
19044;DHT22;9654;52.302;8.120;2023-02-22T02:41:06;7.70;99.90
19044;DHT22;9654;52.302;8.120;2023-02-22T02:43:39;7.60;99.90
19044;DHT22;9654;52.302;8.120;2023-02-22T02:46:10;7.60;99.90
19044;DHT22;9654;52.302;8.120;2023-02-22T02:48:44;7.60;99.90
19044;DHT22;9654;52.302;8.120;2023-02-22T02:51:13;7.60;99.90
19044;DHT22;9654;52.302;8.120;2023-02-22T02:53:45;7.50;99.90
19044;DHT22;9654;52.302;8.120;2023-02-22T02:56:12;7.50;99.90
19044;DHT22;9654;52.302;8.120;2023-02-22T02:58:45;7.50;99.90
19044;DHT22;9654;52.302;8.120;2023-02-22T03:01:19;7.50;99.90
19044;DHT22;9654;52.302;8.120;2023-02-22T03:04:00;7.50;99.90
19044;DHT22;9654;52.302;8.120;2023-02-22T03:06:55;7.50;99.90
19044;DHT22;9654;52.302;8.120;2023-02-22T03:09:34;7.40;99.90
19044;DHT22;9654;52.302;8.120;2023-02-22T03:12:15;7.40;99.90
19044;DHT22;9654;52.302;8.120;2023-02-22T03:14:51;7.40;99.90
19044;DHT22;9654;52.302;8.120;2023-02-22T03:17:24;7.40;99.90
19044;DHT22;9654;52.302;8.120;2023-02-22T03:19:58;7.40;99.90
19044;DHT22;9654;52.302;8.120;2023-02-22T03:22:31;7.40;99.90
19044;DHT22;9654;52.302;8.120;2023-02-22T03:25:01;7.40;99.90
19044;DHT22;9654;52.302;8.120;2023-02-22T03:27:37;7.40;99.90
19044;DHT22;9654;52.302;8.120;2023-02-22T03:30:10;7.40;99.90
19044;DHT22;9654;52.302;8.120;2023-02-22T03:32:40;7.40;99.90
19044;DHT22;9654;52.302;8.120;2023-02-22T03:35:11;7.40;99.90
19044;DHT22;9654;52.302;8.120;2023-02-22T03:37:43;7.40;99.90
19044;DHT22;9654;52.302;8.120;2023-02-22T03:40:15;7.40;99.90
19044;DHT22;9654;52.302;8.120;2023-02-22T03:42:45;7.50;99.90
19044;DHT22;9654;52.302;8.120;2023-02-22T03:45:15;7.50;99.90
19044;DHT22;9654;52.302;8.120;2023-02-22T03:47:46;7.40;99.90
19044;DHT22;9654;52.302;8.120;2023-02-22T03:50:18;7.50;99.90
19044;DHT22;9654;52.302;8.120;2023-02-22T03:52:46;7.50;99.90
19044;DHT22;9654;52.302;8.120;2023-02-22T03:55:14;7.50;99.90
19044;DHT22;9654;52.302;8.120;2023-02-22T03:57:45;7.50;99.90
19044;DHT22;9654;52.302;8.120;2023-02-22T04:00:17;7.50;99.90
19044;DHT22;9654;52.302;8.120;2023-02-22T04:02:44;7.60;99.90
19044;DHT22;9654;52.302;8.120;2023-02-22T04:05:11;7.50;99.90
19044;DHT22;9654;52.302;8.120;2023-02-22T04:07:40;7.60;99.90
19044;DHT22;9654;52.302;8.120;2023-02-22T04:10:09;7.60;99.90
19044;DHT22;9654;52.302;8.120;2023-02-22T04:12:36;7.50;99.90
19044;DHT22;9654;52.302;8.120;2023-02-22T04:15:06;7.60;99.90
19044;DHT22;9654;52.302;8.120;2023-02-22T04:17:33;7.50;99.90
19044;DHT22;9654;52.302;8.120;2023-02-22T04:20:00;7.50;99.90
19044;DHT22;9654;52.302;8.120;2023-02-22T04:22:28;7.50;99.90
19044;DHT22;9654;52.302;8.120;2023-02-22T04:24:56;7.50;99.90
19044;DHT22;9654;52.302;8.120;2023-02-22T04:27:23;7.50;99.90
19044;DHT22;9654;52.302;8.120;2023-02-22T04:29:49;7.50;99.90
19044;DHT22;9654;52.302;8.120;2023-02-22T04:32:16;7.50;99.90
19044;DHT22;9654;52.302;8.120;2023-02-22T04:34:43;7.50;99.90
19044;DHT22;9654;52.302;8.120;2023-02-22T04:37:10;7.50;99.90
19044;DHT22;9654;52.302;8.120;2023-02-22T04:39:37;7.50;99.90
19044;DHT22;9654;52.302;8.120;2023-02-22T04:42:05;7.40;99.90
19044;DHT22;9654;52.302;8.120;2023-02-22T04:44:32;7.40;99.90
19044;DHT22;9654;52.302;8.120;2023-02-22T04:46:59;7.40;99.90
19044;DHT22;9654;52.302;8.120;2023-02-22T04:49:26;7.40;99.90
19044;DHT22;9654;52.302;8.120;2023-02-22T04:51:53;7.40;99.90
19044;DHT22;9654;52.302;8.120;2023-02-22T04:54:19;7.30;99.90
19044;DHT22;9654;52.302;8.120;2023-02-22T04:56:46;7.30;99.90
19044;DHT22;9654;52.302;8.120;2023-02-22T04:59:14;7.30;99.90
19044;DHT22;9654;52.302;8.120;2023-02-22T05:01:41;7.30;99.90
19044;DHT22;9654;52.302;8.120;2023-02-22T05:04:08;7.30;99.90
19044;DHT22;9654;52.302;8.120;2023-02-22T05:06:34;7.30;99.90
19044;DHT22;9654;52.302;8.120;2023-02-22T05:09:02;7.20;99.90
19044;DHT22;9654;52.302;8.120;2023-02-22T05:11:28;7.30;99.90
19044;DHT22;9654;52.302;8.120;2023-02-22T05:13:55;7.30;99.90
19044;DHT22;9654;52.302;8.120;2023-02-22T05:16:23;7.20;99.90
19044;DHT22;9654;52.302;8.120;2023-02-22T05:18:51;7.20;99.90
19044;DHT22;9654;52.302;8.120;2023-02-22T05:21:17;7.20;99.90
19044;DHT22;9654;52.302;8.120;2023-02-22T05:23:44;7.20;99.90
19044;DHT22;9654;52.302;8.120;2023-02-22T05:26:11;7.20;99.90
19044;DHT22;9654;52.302;8.120;2023-02-22T05:28:38;7.20;99.90
19044;DHT22;9654;52.302;8.120;2023-02-22T05:31:05;7.20;99.90
19044;DHT22;9654;52.302;8.120;2023-02-22T05:33:34;7.20;99.90
19044;DHT22;9654;52.302;8.120;2023-02-22T05:36:01;7.10;99.90
19044;DHT22;9654;52.302;8.120;2023-02-22T05:38:27;7.00;99.90
19044;DHT22;9654;52.302;8.120;2023-02-22T05:40:54;7.00;99.90
19044;DHT22;9654;52.302;8.120;2023-02-22T05:43:21;7.00;99.90
19044;DHT22;9654;52.302;8.120;2023-02-22T05:45:48;6.90;99.90
19044;DHT22;9654;52.302;8.120;2023-02-22T05:48:15;6.90;99.90
19044;DHT22;9654;52.302;8.120;2023-02-22T05:50:43;6.90;99.90
19044;DHT22;9654;52.302;8.120;2023-02-22T05:53:10;6.90;99.90
19044;DHT22;9654;52.302;8.120;2023-02-22T05:55:36;6.90;99.90
19044;DHT22;9654;52.302;8.120;2023-02-22T05:58:04;6.80;99.90
19044;DHT22;9654;52.302;8.120;2023-02-22T06:00:31;6.80;99.90
19044;DHT22;9654;52.302;8.120;2023-02-22T06:03:00;6.80;99.90
19044;DHT22;9654;52.302;8.120;2023-02-22T06:05:27;6.80;99.90
19044;DHT22;9654;52.302;8.120;2023-02-22T06:07:56;6.80;99.90
19044;DHT22;9654;52.302;8.120;2023-02-22T06:10:24;6.80;99.90
19044;DHT22;9654;52.302;8.120;2023-02-22T06:12:51;6.80;99.90
19044;DHT22;9654;52.302;8.120;2023-02-22T06:15:19;6.80;99.90
19044;DHT22;9654;52.302;8.120;2023-02-22T06:17:47;6.80;99.90
19044;DHT22;9654;52.302;8.120;2023-02-22T06:20:16;6.80;99.90
19044;DHT22;9654;52.302;8.120;2023-02-22T06:22:45;6.80;99.90
19044;DHT22;9654;52.302;8.120;2023-02-22T06:25:14;6.90;99.90
19044;DHT22;9654;52.302;8.120;2023-02-22T06:27:42;6.80;99.90
19044;DHT22;9654;52.302;8.120;2023-02-22T06:30:09;6.80;99.90
19044;DHT22;9654;52.302;8.120;2023-02-22T06:32:37;6.80;99.90
19044;DHT22;9654;52.302;8.120;2023-02-22T06:35:04;6.70;99.90
19044;DHT22;9654;52.302;8.120;2023-02-22T06:37:31;6.70;99.90
19044;DHT22;9654;52.302;8.120;2023-02-22T06:39:58;6.70;99.90
19044;DHT22;9654;52.302;8.120;2023-02-22T06:42:26;6.70;99.90
19044;DHT22;9654;52.302;8.120;2023-02-22T06:44:53;6.70;99.90
19044;DHT22;9654;52.302;8.120;2023-02-22T06:47:20;6.60;99.90
19044;DHT22;9654;52.302;8.120;2023-02-22T06:49:51;6.60;99.90
19044;DHT22;9654;52.302;8.120;2023-02-22T06:52:18;6.60;99.90
19044;DHT22;9654;52.302;8.120;2023-02-22T06:54:45;6.60;99.90
19044;DHT22;9654;52.302;8.120;2023-02-22T06:57:12;6.60;99.90
19044;DHT22;9654;52.302;8.120;2023-02-22T06:59:40;6.60;99.90
19044;DHT22;9654;52.302;8.120;2023-02-22T07:02:08;6.60;99.90
19044;DHT22;9654;52.302;8.120;2023-02-22T07:04:34;6.70;99.90
19044;DHT22;9654;52.302;8.120;2023-02-22T07:07:01;6.70;99.90
19044;DHT22;9654;52.302;8.120;2023-02-22T07:09:28;6.70;99.90
19044;DHT22;9654;52.302;8.120;2023-02-22T07:11:55;6.80;99.90
19044;DHT22;9654;52.302;8.120;2023-02-22T07:14:22;6.80;99.90
19044;DHT22;9654;52.302;8.120;2023-02-22T07:16:50;6.80;99.90
19044;DHT22;9654;52.302;8.120;2023-02-22T07:19:16;6.80;99.90
19044;DHT22;9654;52.302;8.120;2023-02-22T07:21:43;6.80;99.90
19044;DHT22;9654;52.302;8.120;2023-02-22T07:24:12;6.80;99.90
19044;DHT22;9654;52.302;8.120;2023-02-22T07:26:39;6.90;99.90
19044;DHT22;9654;52.302;8.120;2023-02-22T07:29:07;6.80;99.90
19044;DHT22;9654;52.302;8.120;2023-02-22T07:31:35;6.80;99.90
19044;DHT22;9654;52.302;8.120;2023-02-22T07:34:03;6.90;99.90
19044;DHT22;9654;52.302;8.120;2023-02-22T07:36:31;6.90;99.90
19044;DHT22;9654;52.302;8.120;2023-02-22T07:38:57;6.90;99.90
19044;DHT22;9654;52.302;8.120;2023-02-22T07:41:24;7.00;99.90
19044;DHT22;9654;52.302;8.120;2023-02-22T07:43:51;6.90;99.90
19044;DHT22;9654;52.302;8.120;2023-02-22T07:46:18;6.90;99.90
19044;DHT22;9654;52.302;8.120;2023-02-22T07:48:44;7.00;99.90
19044;DHT22;9654;52.302;8.120;2023-02-22T07:51:15;7.00;99.90
19044;DHT22;9654;52.302;8.120;2023-02-22T07:53:42;6.90;99.90
19044;DHT22;9654;52.302;8.120;2023-02-22T07:56:09;7.00;99.90
19044;DHT22;9654;52.302;8.120;2023-02-22T07:58:36;7.00;99.90
19044;DHT22;9654;52.302;8.120;2023-02-22T08:01:03;7.10;99.90
19044;DHT22;9654;52.302;8.120;2023-02-22T08:03:31;7.10;99.90
19044;DHT22;9654;52.302;8.120;2023-02-22T08:06:01;7.10;99.90
19044;DHT22;9654;52.302;8.120;2023-02-22T08:08:29;7.20;99.90
19044;DHT22;9654;52.302;8.120;2023-02-22T08:10:56;7.20;99.90
19044;DHT22;9654;52.302;8.120;2023-02-22T08:13:23;7.30;99.90
19044;DHT22;9654;52.302;8.120;2023-02-22T08:15:51;7.30;99.90
19044;DHT22;9654;52.302;8.120;2023-02-22T08:18:19;7.30;99.90
19044;DHT22;9654;52.302;8.120;2023-02-22T08:20:48;7.30;99.90
19044;DHT22;9654;52.302;8.120;2023-02-22T08:23:18;7.30;99.90
19044;DHT22;9654;52.302;8.120;2023-02-22T08:25:46;7.40;99.90
19044;DHT22;9654;52.302;8.120;2023-02-22T08:28:14;7.50;99.90
19044;DHT22;9654;52.302;8.120;2023-02-22T08:30:41;7.50;99.90
19044;DHT22;9654;52.302;8.120;2023-02-22T08:33:09;7.50;99.90
19044;DHT22;9654;52.302;8.120;2023-02-22T08:35:39;7.60;99.90
19044;DHT22;9654;52.302;8.120;2023-02-22T08:38:07;7.70;99.90
19044;DHT22;9654;52.302;8.120;2023-02-22T08:40:36;7.70;99.90
19044;DHT22;9654;52.302;8.120;2023-02-22T08:43:05;7.70;99.90
19044;DHT22;9654;52.302;8.120;2023-02-22T08:45:32;7.80;99.90
19044;DHT22;9654;52.302;8.120;2023-02-22T08:47:58;7.80;99.90
19044;DHT22;9654;52.302;8.120;2023-02-22T08:50:27;7.80;99.90
19044;DHT22;9654;52.302;8.120;2023-02-22T08:52:55;7.80;99.90
19044;DHT22;9654;52.302;8.120;2023-02-22T08:55:24;7.80;99.90
19044;DHT22;9654;52.302;8.120;2023-02-22T08:57:51;7.80;99.90
19044;DHT22;9654;52.302;8.120;2023-02-22T09:00:21;7.80;99.90
19044;DHT22;9654;52.302;8.120;2023-02-22T09:02:49;7.80;99.90
19044;DHT22;9654;52.302;8.120;2023-02-22T09:05:16;7.80;99.90
19044;DHT22;9654;52.302;8.120;2023-02-22T09:07:43;7.80;99.90
19044;DHT22;9654;52.302;8.120;2023-02-22T09:10:13;7.80;99.90
19044;DHT22;9654;52.302;8.120;2023-02-22T09:12:41;7.80;99.90
19044;DHT22;9654;52.302;8.120;2023-02-22T09:15:08;7.80;99.90
19044;DHT22;9654;52.302;8.120;2023-02-22T09:17:37;7.90;99.90
19044;DHT22;9654;52.302;8.120;2023-02-22T09:20:05;7.90;99.90
19044;DHT22;9654;52.302;8.120;2023-02-22T09:22:32;7.90;99.90
19044;DHT22;9654;52.302;8.120;2023-02-22T09:24:59;8.00;99.90
19044;DHT22;9654;52.302;8.120;2023-02-22T09:27:29;8.10;99.90
19044;DHT22;9654;52.302;8.120;2023-02-22T09:29:56;8.10;99.90
19044;DHT22;9654;52.302;8.120;2023-02-22T09:32:23;8.20;99.90
19044;DHT22;9654;52.302;8.120;2023-02-22T09:34:53;8.20;99.90
19044;DHT22;9654;52.302;8.120;2023-02-22T09:37:20;8.30;99.90
19044;DHT22;9654;52.302;8.120;2023-02-22T09:39:47;8.30;99.90
19044;DHT22;9654;52.302;8.120;2023-02-22T09:42:22;8.40;99.90
19044;DHT22;9654;52.302;8.120;2023-02-22T09:44:57;8.50;99.90
19044;DHT22;9654;52.302;8.120;2023-02-22T09:47:36;8.50;99.90
19044;DHT22;9654;52.302;8.120;2023-02-22T09:50:09;8.70;99.90
19044;DHT22;9654;52.302;8.120;2023-02-22T09:52:46;8.80;99.90
19044;DHT22;9654;52.302;8.120;2023-02-22T09:55:25;8.90;99.90
19044;DHT22;9654;52.302;8.120;2023-02-22T09:57:56;8.90;99.90
19044;DHT22;9654;52.302;8.120;2023-02-22T10:00:29;8.90;99.90
19044;DHT22;9654;52.302;8.120;2023-02-22T10:03:06;9.00;99.90
19044;DHT22;9654;52.302;8.120;2023-02-22T10:05:38;9.10;99.90
19044;DHT22;9654;52.302;8.120;2023-02-22T10:08:11;9.10;99.90
19044;DHT22;9654;52.302;8.120;2023-02-22T10:10:40;9.20;99.90
19044;DHT22;9654;52.302;8.120;2023-02-22T10:13:17;9.30;99.90
19044;DHT22;9654;52.302;8.120;2023-02-22T10:15:49;9.40;99.90
19044;DHT22;9654;52.302;8.120;2023-02-22T10:18:41;9.50;99.90
19044;DHT22;9654;52.302;8.120;2023-02-22T10:21:21;9.60;99.90
19044;DHT22;9654;52.302;8.120;2023-02-22T10:23:57;9.70;99.90
19044;DHT22;9654;52.302;8.120;2023-02-22T10:26:31;9.80;99.90
19044;DHT22;9654;52.302;8.120;2023-02-22T10:29:01;9.80;99.90
19044;DHT22;9654;52.302;8.120;2023-02-22T10:31:30;9.90;99.90
19044;DHT22;9654;52.302;8.120;2023-02-22T10:34:01;10.10;99.90
19044;DHT22;9654;52.302;8.120;2023-02-22T10:36:30;10.10;99.90
19044;DHT22;9654;52.302;8.120;2023-02-22T10:39:06;10.20;99.90
19044;DHT22;9654;52.302;8.120;2023-02-22T10:41:43;10.20;99.90
19044;DHT22;9654;52.302;8.120;2023-02-22T10:44:12;10.30;99.90
19044;DHT22;9654;52.302;8.120;2023-02-22T10:46:41;10.40;99.90
19044;DHT22;9654;52.302;8.120;2023-02-22T10:49:10;10.50;99.90
19044;DHT22;9654;52.302;8.120;2023-02-22T10:51:42;10.60;99.90
19044;DHT22;9654;52.302;8.120;2023-02-22T10:54:22;10.60;99.90
19044;DHT22;9654;52.302;8.120;2023-02-22T10:56:52;10.70;99.90
19044;DHT22;9654;52.302;8.120;2023-02-22T10:59:29;10.80;99.90
19044;DHT22;9654;52.302;8.120;2023-02-22T11:01:57;10.90;99.90
19044;DHT22;9654;52.302;8.120;2023-02-22T11:04:24;11.00;99.90
19044;DHT22;9654;52.302;8.120;2023-02-22T11:07:09;11.00;99.90
19044;DHT22;9654;52.302;8.120;2023-02-22T11:09:46;11.10;99.90
19044;DHT22;9654;52.302;8.120;2023-02-22T11:12:17;11.10;99.90
19044;DHT22;9654;52.302;8.120;2023-02-22T11:14:45;11.20;99.90
19044;DHT22;9654;52.302;8.120;2023-02-22T11:17:17;11.30;99.90
19044;DHT22;9654;52.302;8.120;2023-02-22T11:19:46;11.40;99.90
19044;DHT22;9654;52.302;8.120;2023-02-22T11:22:20;11.40;99.90
19044;DHT22;9654;52.302;8.120;2023-02-22T11:24:50;11.40;99.90
19044;DHT22;9654;52.302;8.120;2023-02-22T11:27:25;11.50;99.90
19044;DHT22;9654;52.302;8.120;2023-02-22T11:29:52;11.50;99.90
19044;DHT22;9654;52.302;8.120;2023-02-22T11:32:22;11.60;99.90
19044;DHT22;9654;52.302;8.120;2023-02-22T11:34:49;11.60;99.90
19044;DHT22;9654;52.302;8.120;2023-02-22T11:37:28;11.70;99.90
19044;DHT22;9654;52.302;8.120;2023-02-22T11:40:13;11.80;99.90
19044;DHT22;9654;52.302;8.120;2023-02-22T11:42:42;11.90;99.90
19044;DHT22;9654;52.302;8.120;2023-02-22T11:45:12;12.00;99.90
19044;DHT22;9654;52.302;8.120;2023-02-22T11:47:48;12.00;99.90
19044;DHT22;9654;52.302;8.120;2023-02-22T11:50:23;12.10;99.90
19044;DHT22;9654;52.302;8.120;2023-02-22T11:55:43;12.40;99.90
19044;DHT22;9654;52.302;8.120;2023-02-22T11:58:25;12.50;99.90
19044;DHT22;9654;52.302;8.120;2023-02-22T12:00:59;12.50;99.90
19044;DHT22;9654;52.302;8.120;2023-02-22T12:03:44;12.60;99.90
19044;DHT22;9654;52.302;8.120;2023-02-22T12:06:26;12.70;99.90
19044;DHT22;9654;52.302;8.120;2023-02-22T12:09:05;12.70;99.90
19044;DHT22;9654;52.302;8.120;2023-02-22T12:11:38;12.70;99.90
19044;DHT22;9654;52.302;8.120;2023-02-22T12:14:20;12.70;99.90
19044;DHT22;9654;52.302;8.120;2023-02-22T12:17:09;12.90;99.90
19044;DHT22;9654;52.302;8.120;2023-02-22T12:19:40;13.00;99.90
19044;DHT22;9654;52.302;8.120;2023-02-22T12:22:12;13.00;99.90
19044;DHT22;9654;52.302;8.120;2023-02-22T12:24:46;13.10;99.90
19044;DHT22;9654;52.302;8.120;2023-02-22T12:27:19;13.10;99.90
19044;DHT22;9654;52.302;8.120;2023-02-22T12:29:50;13.20;99.90
19044;DHT22;9654;52.302;8.120;2023-02-22T12:32:27;13.10;99.90
19044;DHT22;9654;52.302;8.120;2023-02-22T12:34:57;13.00;99.90
19044;DHT22;9654;52.302;8.120;2023-02-22T12:37:27;13.10;99.90
19044;DHT22;9654;52.302;8.120;2023-02-22T12:40:03;13.10;99.90
19044;DHT22;9654;52.302;8.120;2023-02-22T12:42:40;13.20;99.90
19044;DHT22;9654;52.302;8.120;2023-02-22T12:45:12;13.30;99.90
19044;DHT22;9654;52.302;8.120;2023-02-22T12:47:48;13.50;99.90
19044;DHT22;9654;52.302;8.120;2023-02-22T12:50:20;13.70;99.90
19044;DHT22;9654;52.302;8.120;2023-02-22T12:52:52;13.80;99.90
19044;DHT22;9654;52.302;8.120;2023-02-22T12:55:26;14.00;99.90
19044;DHT22;9654;52.302;8.120;2023-02-22T12:58:01;14.20;99.90
19044;DHT22;9654;52.302;8.120;2023-02-22T13:00:38;14.30;99.90
19044;DHT22;9654;52.302;8.120;2023-02-22T13:03:25;14.20;99.90
19044;DHT22;9654;52.302;8.120;2023-02-22T13:05:59;14.20;99.90
19044;DHT22;9654;52.302;8.120;2023-02-22T13:08:34;14.20;99.90
19044;DHT22;9654;52.302;8.120;2023-02-22T13:11:14;14.30;99.90
19044;DHT22;9654;52.302;8.120;2023-02-22T13:13:47;14.40;99.90
19044;DHT22;9654;52.302;8.120;2023-02-22T13:16:29;14.40;99.90
19044;DHT22;9654;52.302;8.120;2023-02-22T13:19:03;14.50;99.90
19044;DHT22;9654;52.302;8.120;2023-02-22T13:21:42;14.60;99.90
19044;DHT22;9654;52.302;8.120;2023-02-22T13:24:17;14.70;99.90
19044;DHT22;9654;52.302;8.120;2023-02-22T13:26:48;14.60;99.90
19044;DHT22;9654;52.302;8.120;2023-02-22T13:29:18;14.60;99.90
19044;DHT22;9654;52.302;8.120;2023-02-22T13:32:07;14.60;99.90
19044;DHT22;9654;52.302;8.120;2023-02-22T13:37:53;14.50;99.90
19044;DHT22;9654;52.302;8.120;2023-02-22T13:43:59;14.30;99.90
19044;DHT22;9654;52.302;8.120;2023-02-22T13:46:59;14.30;99.90
19044;DHT22;9654;52.302;8.120;2023-02-22T13:49:51;14.20;99.90
19044;DHT22;9654;52.302;8.120;2023-02-22T13:52:26;14.10;99.90
19044;DHT22;9654;52.302;8.120;2023-02-22T13:54:58;14.10;99.90
19044;DHT22;9654;52.302;8.120;2023-02-22T13:57:28;14.10;99.90
19044;DHT22;9654;52.302;8.120;2023-02-22T14:00:32;14.10;99.90
19044;DHT22;9654;52.302;8.120;2023-02-22T14:03:05;14.00;99.90
19044;DHT22;9654;52.302;8.120;2023-02-22T14:05:35;14.00;99.90
19044;DHT22;9654;52.302;8.120;2023-02-22T14:08:03;14.00;99.90
19044;DHT22;9654;52.302;8.120;2023-02-22T14:10:46;13.90;99.90
19044;DHT22;9654;52.302;8.120;2023-02-22T14:13:15;14.00;99.90
19044;DHT22;9654;52.302;8.120;2023-02-22T14:16:16;14.00;99.90
19044;DHT22;9654;52.302;8.120;2023-02-22T14:18:46;14.00;99.90
19044;DHT22;9654;52.302;8.120;2023-02-22T14:21:15;14.10;99.90
19044;DHT22;9654;52.302;8.120;2023-02-22T14:23:44;14.10;99.90
19044;DHT22;9654;52.302;8.120;2023-02-22T14:26:15;14.10;99.90
19044;DHT22;9654;52.302;8.120;2023-02-22T14:28:52;14.10;99.90
19044;DHT22;9654;52.302;8.120;2023-02-22T14:31:23;14.10;99.90
19044;DHT22;9654;52.302;8.120;2023-02-22T14:33:58;14.10;99.90
19044;DHT22;9654;52.302;8.120;2023-02-22T14:36:28;14.00;99.90
19044;DHT22;9654;52.302;8.120;2023-02-22T14:39:05;14.00;99.90
19044;DHT22;9654;52.302;8.120;2023-02-22T14:41:34;13.90;99.90
19044;DHT22;9654;52.302;8.120;2023-02-22T14:44:03;14.00;99.90
19044;DHT22;9654;52.302;8.120;2023-02-22T14:46:35;13.90;99.90
19044;DHT22;9654;52.302;8.120;2023-02-22T14:49:06;14.00;99.90
19044;DHT22;9654;52.302;8.120;2023-02-22T14:51:41;14.00;99.90
19044;DHT22;9654;52.302;8.120;2023-02-22T14:54:14;14.00;99.90
19044;DHT22;9654;52.302;8.120;2023-02-22T14:56:52;14.00;99.90
19044;DHT22;9654;52.302;8.120;2023-02-22T14:59:22;14.00;99.90
19044;DHT22;9654;52.302;8.120;2023-02-22T15:02:03;14.00;99.90
19044;DHT22;9654;52.302;8.120;2023-02-22T15:04:30;14.00;99.90
19044;DHT22;9654;52.302;8.120;2023-02-22T15:06:59;14.00;99.90
19044;DHT22;9654;52.302;8.120;2023-02-22T15:09:28;14.00;99.90
19044;DHT22;9654;52.302;8.120;2023-02-22T15:12:11;13.90;99.90
19044;DHT22;9654;52.302;8.120;2023-02-22T15:14:39;13.90;99.90
19044;DHT22;9654;52.302;8.120;2023-02-22T15:17:16;13.80;99.90
19044;DHT22;9654;52.302;8.120;2023-02-22T15:19:45;13.70;99.90
19044;DHT22;9654;52.302;8.120;2023-02-22T15:22:19;13.70;99.90
19044;DHT22;9654;52.302;8.120;2023-02-22T15:24:56;13.60;99.90
19044;DHT22;9654;52.302;8.120;2023-02-22T15:27:24;13.60;99.90
19044;DHT22;9654;52.302;8.120;2023-02-22T15:29:56;13.50;99.90
19044;DHT22;9654;52.302;8.120;2023-02-22T15:32:30;13.40;99.90
19044;DHT22;9654;52.302;8.120;2023-02-22T15:35:11;13.40;99.90
19044;DHT22;9654;52.302;8.120;2023-02-22T15:37:39;13.30;99.90
19044;DHT22;9654;52.302;8.120;2023-02-22T15:40:06;13.30;99.90
19044;DHT22;9654;52.302;8.120;2023-02-22T15:42:42;13.30;99.90
19044;DHT22;9654;52.302;8.120;2023-02-22T15:45:15;13.30;99.90
19044;DHT22;9654;52.302;8.120;2023-02-22T15:47:43;13.20;99.90
19044;DHT22;9654;52.302;8.120;2023-02-22T15:50:16;13.20;99.90
19044;DHT22;9654;52.302;8.120;2023-02-22T15:52:52;13.20;99.90
19044;DHT22;9654;52.302;8.120;2023-02-22T15:55:25;13.10;99.90
19044;DHT22;9654;52.302;8.120;2023-02-22T15:57:52;13.10;99.90
19044;DHT22;9654;52.302;8.120;2023-02-22T16:00:21;13.10;99.90
19044;DHT22;9654;52.302;8.120;2023-02-22T16:02:50;13.10;99.90
19044;DHT22;9654;52.302;8.120;2023-02-22T16:05:17;13.00;99.90
19044;DHT22;9654;52.302;8.120;2023-02-22T16:07:47;13.00;99.90
19044;DHT22;9654;52.302;8.120;2023-02-22T16:10:20;13.00;99.90
19044;DHT22;9654;52.302;8.120;2023-02-22T16:12:48;12.90;99.90
19044;DHT22;9654;52.302;8.120;2023-02-22T16:15:17;12.80;99.90
19044;DHT22;9654;52.302;8.120;2023-02-22T16:17:44;12.80;99.90
19044;DHT22;9654;52.302;8.120;2023-02-22T16:20:33;12.70;99.90
19044;DHT22;9654;52.302;8.120;2023-02-22T16:23:21;12.70;99.90
19044;DHT22;9654;52.302;8.120;2023-02-22T16:26:00;12.60;99.90
19044;DHT22;9654;52.302;8.120;2023-02-22T16:28:29;12.50;99.90
19044;DHT22;9654;52.302;8.120;2023-02-22T16:30:58;12.40;99.90
19044;DHT22;9654;52.302;8.120;2023-02-22T16:33:25;12.30;99.90